x

Santa Monica Basin - 33nm Wsw Of Santa Monica, Ca (46025) Weather Station

5:10 - Sun 4th Dec 2016 All times are PST. -8 hours from GMT.

  • Wind
    7mph, 9mph gusts
  • Sea Temp 60°f
  • Luft Temp 60°f
  • Sea Pressure 1017mb
  • Santa Monica Basin - 33nm Wsw Of Santa Monica, Ca
  • Santa Monica Basin - 33nm Wsw Of Santa Monica, Ca

More Historic Weather Station data

Upgrade to MSW Pro to gain access to the past 30 days of data for over 8000 Wavebouys and Weather Stations around the globe.

Join Pro

Comparision Forecast

View Surf forecast
   
So 12/04 5:10  -   -   -  7 9 mph 1017mb 60f 60f
5:00  -   -   -  7 9 mph 1017mb - 60f
4:50 3ft 19s 6s 7 9 mph 1017mb 60f 60f
4:40  -   -   -  7 9 mph 1017mb 60f 60f
4:30  -   -   -  7 9 mph 1016.9mb 60f 60f
4:20  -   -   -  7 9 mph 1016.9mb 60f 60f
4:10  -   -   -  7 9 mph 1016.9mb - -
4:00  -   -   -  4 7 mph 1016.9mb 60f 60f
3:50 3ft 14s 6s 4 7 mph 1016.9mb 60f 60f
3:40  -   -   -  4 7 mph 1016.9mb 60f 60f
3:30  -   -   -  7
mph
1016.9mb 60f 60f
3:20  -   -   -  7 9 mph 1017mb 60f 60f
3:10  -   -   -  7 9 mph 1017mb 60f 60f
3:00  -   -   -  9 11 mph 1017mb 60f 60f
2:50 2.5ft 15s 6s 11 13 mph 1017.1mb 60f 60f
2:40 2.5ft  -  6s 9 13 mph 1017.1mb 60f 60f
2:30  -   -   -  11
mph
1017mb 60f 60f
2:20  -   -   -  9 11 mph 1017.3mb 60f 60f
2:10  -   -   -  9 11 mph 1017.3mb 60f 60f
2:00  -   -   -  9 11 mph 1017.3mb 60f 60f
1:50 3.5ft 19s 6s 7 11 mph 1017.3mb 60f 60f
1:40 3.5ft  -  6s 7 9 mph 1017.3mb 60f 60f
1:30  -   -   -  9 11 mph 1017.3mb 60f 60f
1:20  -   -   -  9 11 mph 1017.3mb 60f 60f
1:10  -   -   -  7 9 mph 1017.4mb 60f 60f
1:00  -   -   -  9
mph
1017.3mb 60f 60f
12:50 3ft 11s 5s 7 9 mph 1017.4mb 60f 60f
12:40  -   -   -  7 9 mph 1017.5mb 60f 60f
12:30  -   -   -  9 11 mph 1017.3mb 60f 60f
12:20  -   -   -  4 7 mph 1017.5mb 60f 60f
12:10  -   -   -  7 11 mph 1017.5mb 60f 60f
12:00  -   -   -  7 9 mph 1017.4mb 60f 60f
Sa 12/03 11:50 3.5ft 19s 5s 7 9 mph 1017.5mb 60f 60f
11:40 3.5ft  -  5s 9 11 mph 1017.5mb 60f 60f
11:30  -   -   -  9 11 mph 1017.5mb 60f 60f
11:20  -   -   -  9 11 mph 1017.6mb 60f 60f
11:10  -   -   -  9 11 mph 1017.5mb 60f 60f
11:00  -   -   -  9 11 mph 1017.6mb 60f 60f
10:50 3.5ft 15s 5s 11 13 mph 1017.5mb 60f 60f
10:40 3.5ft  -  5s 11 13 mph 1017.5mb 60f 61f
10:30  -   -   -  11
mph
1017.6mb 60f 60f
10:20  -   -   -  11 13 mph 1017.5mb 60f 60f
10:10  -   -   -  11 16 mph 1017.5mb 60f 60f
10:00  -   -   -  13 18 mph 1017.5mb 60f 60f
9:50 3.5ft 19s 5s 13 18 mph 1017.4mb 60f 60f
9:40 3.5ft  -  5s 13 16 mph 1017.4mb 60f 60f
9:30  -   -   -  13 16 mph 1017.3mb 60f 60f
9:20  -   -   -  13 16 mph 1017.3mb 60f 61f
9:10  -   -   -  13 16 mph 1017.3mb 60f 61f
9:00  -   -   -  16 18 mph 1017.3mb 60f 61f
8:50 3.5ft 11s 5s 16 18 mph 1017.4mb 60f 61f
8:40 3.5ft  -  5s 13 18 mph 1017.5mb 60f 61f
8:30  -   -   -  16 20 mph 1017.3mb 60f 61f
8:20  -   -   -  13 20 mph 1017.3mb 60f 60f
8:10  -   -   -  13 18 mph 1017.4mb - 60f
8:00  -   -   -  13 20 mph 1017.5mb 60f 60f
7:50 4.5ft 10s 5s 16 18 mph 1017.3mb 60f 60f
7:40  -   -   -  16 20 mph 1017.3mb 60f 60f
7:30  -   -   -  16 20 mph 1017.4mb 60f 60f
7:20  -   -   -  18 20 mph 1017.5mb 60f 60f
7:10  -   -   -  16 20 mph 1017.5mb 60f 60f
7:00  -   -   -  16 20 mph 1017.6mb 60f 60f
6:50 4.5ft 11s 5s 13 16 mph 1017.6mb 60f 60f
6:40 4.5ft  -  5s 13 18 mph 1017.6mb 60f 60f
6:30  -   -   -  13 18 mph 1017.5mb 60f 60f
6:20  -   -   -  13 20 mph 1017.6mb 60f 60f
6:10  -   -   -  13 18 mph 1017.5mb 60f 60f
6:00  -   -   -  11 13 mph 1017.5mb 60f 60f
5:50 4.5ft 11s 5s 11 16 mph 1017.5mb 60f 60f
5:40  -   -   -  11 16 mph 1017.5mb 60f 60f
5:30  -   -   -  13 16 mph 1017.5mb 60f 60f
5:20  -   -   -  13 18 mph 1017.5mb 60f 60f
5:10  -   -   -  16 20 mph 1017.3mb 60f 60f
5:00  -   -   -  18 22 mph 1017.3mb - 60f
4:50 4ft 11s 5s 18 22 mph 1017.3mb 60f 60f
4:40  -   -   -  20 25 mph 1017.3mb 60f 60f
4:30  -   -   -  18 22 mph 1017.3mb 60f 61f
4:20  -   -   -  20 25 mph 1017.4mb 60f 61f
4:10  -   -   -  20 25 mph 1017.5mb 60f 61f
4:00  -   -   -  18 22 mph 1017.4mb 60f 61f
3:50 4ft 10s 6s 18 22 mph 1017.5mb 60f 61f
3:40 4ft  -  6s 18 22 mph 1017.4mb 60f 61f
3:30  -   -   -  18 20 mph 1017.5mb 60f 61f
3:20  -   -   -  16 20 mph 1017.5mb 60f 61f
3:10  -   -   -  16 18 mph 1017.5mb 60f 62f
3:00  -   -   -  16 20 mph 1017.5mb 60f 62f
2:50 4ft 11s 6s 16 18 mph 1017.6mb 60f 62f
2:40 4ft  -  6s 16 18 mph 1017.6mb 60f 62f
2:30  -   -   -  16 20 mph 1017.6mb 60f 62f
2:20  -   -   -  16 20 mph 1017.6mb 60f 62f
2:10  -   -   -  16 20 mph 1017.5mb 60f 62f
2:00  -   -   -  13 18 mph 1017.6mb 60f 62f
1:50 4ft 11s 6s 16 18 mph 1017.6mb 60f 62f
1:40 4ft  -  6s 16 20 mph 1017.6mb 60f 61f
1:30  -   -   -  16 20 mph 1017.6mb 60f 61f
1:20  -   -   -  18 22 mph 1017.6mb 60f 62f
1:10  -   -   -  16 20 mph 1017.8mb 60f 63f
1:00  -   -   -  18 22 mph 1018mb 60f 63f
12:50 4.5ft 11s 5s 20 25 mph 1018mb 60f 63f
12:40  -   -   -  20 25 mph 1018.1mb 60f 63f
12:30  -   -   -  18 22 mph 1018.4mb 60f 63f
12:20  -   -   -  13 20 mph 1018.5mb 60f 63f
12:10  -   -   -  13 16 mph 1018.6mb 60f 63f
12:00  -   -   -  16 20 mph 1018.9mb 60f 63f
11:50 4.5ft 11s 5s 18 20 mph 1019mb 60f 63f
11:40  -   -   -  18 22 mph 1019.1mb 60f 63f
11:30  -   -   -  18 22 mph 1019.1mb 60f 63f
11:20  -   -   -  16 20 mph 1019.5mb 60f 63f
11:10  -   -   -  18 22 mph 1019.6mb 60f 62f
11:00  -   -   -  20 25 mph 1019.8mb 60f 62f
10:50 4.5ft 11s 5s 22 27 mph 1019.8mb 60f 62f
10:40 4.5ft  -  5s 22 27 mph 1020.1mb 60f 62f
10:30  -   -   -  20 27 mph 1020.4mb 60f 62f
10:20  -   -   -  25 31 mph 1020.4mb 60f 62f
10:10  -   -   -  25 31 mph 1020mb 60f 62f
10:00  -   -   -  20 25 mph 1020.6mb 60f 62f
9:50 4.5ft 11s 5s 22 27 mph 1020.8mb 60f 62f
9:40 4.5ft  -  5s 20 25 mph 1020.8mb 60f 62f
9:30  -   -   -  22 27 mph 1020.9mb 60f 61f
9:20  -   -   -  25 29 mph 1020.5mb 60f 62f
9:10  -   -   -  27 31 mph 1020.1mb 60f 62f
9:00  -   -   -  27 31 mph 1020.1mb 60f 62f
8:50 4ft 4s 4s 25 31 mph 1020.3mb 60f 62f
8:40 4ft  -  4s 22 27 mph 1020.1mb 60f 62f
8:30  -   -   -  18 22 mph 1020.3mb 60f 61f
8:20  -   -   -  20 25 mph 1020.3mb 60f 61f
8:10  -   -   -  20 25 mph 1020mb 60f 61f
8:00  -   -   -  22 29 mph 1020mb 60f 61f
7:50 4ft 4s 5s 27 31 mph 1019.3mb 60f 60f
7:40 4ft  -  5s 25 34 mph 1019.3mb 60f 60f
7:30  -   -   -  20 27 mph 1019.8mb 60f 60f
7:20  -   -   -  20 25 mph 1020mb 60f 60f
7:10  -   -   -  22 29 mph 1019.6mb 60f 60f
7:00  -   -   -  27 31 mph 1019.1mb 60f 60f
6:50 4.5ft 11s 4s 29 36 mph 1019mb 60f 60f
6:40 4.5ft  -  4s 29 36 mph 1018.9mb 60f 60f
6:30  -   -   -  31 38 mph 1019mb 60f 60f
6:20  -   -   -  31 36 mph 1019mb 60f 60f
6:10  -   -   -  29 34 mph 1019.3mb 60f 60f
6:00  -   -   -  29 36 mph 1019.5mb 60f 60f
5:50 4ft 4s 4s 27 34 mph 1019.4mb 60f 60f
5:40  -   -   -  27 34 mph 1019.5mb 60f 60f
5:30  -   -   -  27 34 mph 1019.5mb 60f 60f
5:20  -   -   -  27 34 mph 1019.4mb 60f 60f
5:10  -   -   -  27 34 mph 1019.3mb 60f 60f
5:00  -   -   -  25 31 mph 1019.1mb 60f 60f
4:50 4ft 4s 4s 25 29 mph 1019.4mb 60f 60f
4:40 4ft  -  4s 20 27 mph 1019.5mb 60f 60f
4:30  -   -   -  20 25 mph 1019.4mb 60f 60f
4:20  -   -   -  20 27 mph 1019.3mb 60f 60f
4:10  -   -   -  22 29 mph 1018.9mb 60f 60f
4:00  -   -   -  25 31 mph 1018.6mb 60f 60f
3:50 4.5ft 5s 4s 27 34 mph 1018.4mb 60f 60f
3:40 4.5ft  -  4s 27 34 mph 1018.4mb 60f 60f
3:30  -   -   -  27 34 mph 1018.5mb 60f 60f
3:20  -   -   -  27 31 mph 1018.5mb 60f 60f
3:10  -   -   -  25 31 mph 1018.6mb 60f 60f
3:00  -   -   -  22 27 mph 1019mb 60f 60f
2:50 4.5ft 4s 4s 22 29 mph 1018.9mb 60f 60f
2:40  -   -   -  22 27 mph 1019mb 60f 61f
2:30  -   -   -  22 29 mph 1019mb 60f 60f
2:20  -   -   -  22 29 mph 1019mb 60f 60f
2:10  -   -   -  22 29 mph 1019mb 60f 60f
2:00  -   -   -  20 27 mph 1019mb 60f 61f
1:50 4ft 5s 4s 18 22 mph 1019mb 60f 61f
1:40 4ft  -  4s 20 27 mph 1019mb 60f 61f
1:30  -   -   -  25 29 mph 1018.9mb 60f 62f
1:20  -   -   -  25 31 mph 1018.9mb 60f 62f
1:10  -   -   -  29 36 mph 1018.6mb 60f 62f
1:00  -   -   -  29 38 mph 1018.9mb 60f 62f
12:50 4.5ft 5s 5s 29 38 mph 1018.9mb 60f 62f
12:40 4.5ft  -  5s 25 34 mph 1018.8mb 60f 62f
12:30  -   -   -  22 29 mph 1019mb 60f 62f
12:20  -   -   -  20 27 mph 1019mb 60f 62f
12:10  -   -   -  18 22 mph 1019mb 60f 62f
12:00  -   -   -  20 25 mph 1019mb 60f 62f
Fr 12/02 11:50 4.5ft 11s 5s 20 27 mph 1019mb 60f 62f
11:40 4.5ft  -  5s 18 25 mph 1019.1mb 60f 62f
11:30  -   -   -  18 25 mph 1019.1mb 60f 62f
11:20  -   -   -  18 25 mph 1019.1mb 60f 62f
11:10  -   -   -  18 25 mph 1019.1mb 60f 62f
11:00  -   -   -  18 25 mph 1019mb 60f 62f
10:50 4.5ft 12s 5s 18 22 mph 1019mb 60f 62f
10:40 4.5ft  -  5s 18 25 mph 1019mb 60f 62f
10:30  -   -   -  18 25 mph 1019.1mb 60f 62f
10:20  -   -   -  20 25 mph 1019mb 60f 62f
10:10  -   -   -  20 25 mph 1019.1mb 60f 62f
10:00  -   -   -  22 27 mph 1019.1mb 60f 62f
9:50 4.5ft 11s 5s 22 29 mph 1018.9mb 60f 62f
9:40 4.5ft  -  5s 20 25 mph 1018.9mb 60f 62f
9:30  -   -   -  22 25 mph 1019mb 60f 62f
9:20  -   -   -  22 27 mph 1019mb 60f 62f
9:10  -   -   -  20 25 mph 1019mb 60f 62f
9:00  -   -   -  20 27 mph 1019mb 60f 62f
8:50 4.5ft 11s 5s 18 25 mph 1019mb 60f 62f
8:40  -   -   -  18 25 mph 1019mb - 62f
8:30  -   -   -  18 27 mph 1019mb 60f 62f
8:20  -   -   -  16 25 mph 1018.9mb 60f 62f
8:10  -   -   -  13 22 mph 1018.9mb 60f 62f
8:00  -   -   -  11 20 mph 1018.9mb 60f 62f
7:50 4.5ft 13s 5s 13 29 mph 1018.8mb 60f 62f
7:40 4.5ft  -  5s 16 22 mph 1018.8mb 60f 62f
7:30  -   -   -  16 20 mph 1018.6mb 60f 62f
7:20  -   -   -  18 25 mph 1018.4mb 60f 62f
7:10  -   -   -  18 25 mph 1018.3mb 60f 62f
7:00  -   -   -  20 25 mph 1018.1mb 60f 62f
6:50 5ft 5s 5s 20 29 mph 1018mb 60f 62f
6:40 5ft  -  5s 20 25 mph 1017.9mb 60f 62f
6:30  -   -   -  20 25 mph 1018mb 60f 62f
6:20  -   -   -  18 27 mph 1018mb 60f 62f
6:10  -   -   -  18 25 mph 1017.9mb 60f 62f
6:00  -   -   -  20 27 mph 1018mb 60f 62f
5:50 5ft 5s 5s 18 25 mph 1017.9mb 60f 62f
5:20  -   -   -  20 27 mph 1018.6mb 60f 62f
5:10  -   -   -  20 27 mph 1017.5mb 60f 62f
5:00  -   -   -  22 27 mph 1017mb 60f 62f
4:50 5ft 5s 5s 22 29 mph 1016.9mb 60f 62f
4:40 5ft  -  5s 22 27 mph 1016.6mb 60f 62f
4:30  -   -   -  20 27 mph 1016.9mb 60f 63f
4:20  -   -   -  22 27 mph 1017mb 60f 63f
4:10  -   -   -  20 25 mph 1017mb 60f 63f
4:00  -   -   -  18 27 mph 1017mb 60f 63f
3:50 4.5ft 5s 5s 20 25 mph 1016.9mb 60f 63f
3:40 4.5ft  -  5s 20 25 mph 1016.6mb 60f 63f
3:30  -   -   -  20 27 mph 1016.5mb 60f 63f
3:20  -   -   -  27 34 mph 1016mb 60f 63f
3:10  -   -   -  22 29 mph 1016.1mb 60f 63f
3:00  -   -   -  27 31 mph 1016.1mb 60f 63f
2:50 4.5ft 11s 5s 25 31 mph 1015.9mb 60f 63f
2:40 4.5ft  -  5s 22 29 mph 1015.9mb 60f 63f
2:30  -   -   -  18 25 mph 1016mb 60f 63f
2:20  -   -   -  18 27 mph 1016mb 60f 63f
2:10  -   -   -  11 16 mph 1016.1mb 60f 63f
2:00  -   -   -  7 11 mph 1016.3mb 60f 62f
1:50 5ft 13s 6s 7 11 mph 1016.4mb 60f 62f
1:40 5ft  -  6s 7 11 mph 1016.5mb 60f 62f
1:30  -   -   -  4 7 mph 1016.5mb 60f 62f
1:20  -   -   -  7 13 mph 1016.6mb 60f 62f
1:10  -   -   -  16 22 mph 1016.8mb 60f 62f
1:00  -   -   -  20 25 mph 1016.8mb 60f 62f
12:50 5ft 12s 5s 22 29 mph 1016.6mb 60f 62f
12:40  -   -   -  20 25 mph 1016.9mb 60f 62f
12:30  -   -   -  20 27 mph 1016.9mb 60f 62f
12:20  -   -   -  22 29 mph 1016.6mb 60f 62f
12:10  -   -   -  20 25 mph 1016.6mb 61f 61f
12:00  -   -   -  18 22 mph 1017mb 61f 61f
11:50 5ft 11s 5s 16 20 mph 1017.1mb 61f 61f
11:40 5ft  -  5s 18 22 mph 1017.3mb 61f 61f
11:30  -   -   -  20 25 mph 1017.3mb - -
11:20  -   -   -  20 22 mph 1017.1mb 61f 61f
11:10  -   -   -  20 25 mph 1017.3mb 61f 61f
11:00  -   -   -  22 27 mph 1017.5mb 61f 61f
10:50 5ft 5s 5s 22 27 mph 1017.5mb 61f 60f
10:40  -   -   -  25 29 mph 1017.5mb 61f 60f
10:30  -   -   -  22 27 mph 1017.6mb 61f 60f
10:20  -   -   -  25 31 mph 1017.5mb 61f 60f
10:10  -   -   -  25 31 mph 1017.4mb 61f 60f
10:00  -   -   -  25 31 mph 1017.3mb 61f 60f
9:50 5.5ft 5s 5s 27 34 mph 1017.3mb 61f 60f
9:40 5.5ft  -  5s 29 38 mph 1017.1mb 61f 60f
9:30  -   -   -  29 38 mph 1017mb 61f 60f
9:20  -   -   -  31 38 mph 1017mb 61f 60f
9:10  -   -   -  27 36 mph 1017mb 61f 60f
9:00  -   -   -  25 31 mph 1017.1mb 61f 60f
8:50 5.5ft 5s 5s 25 31 mph 1017.3mb 61f 60f
8:40  -   -   -  29 36 mph 1017mb 61f 60f
8:30  -   -   -  31 43 mph 1016.4mb 61f 60f
8:20  -   -   -  31 40 mph 1016.4mb 61f 60f
8:10  -   -   -  29 38 mph 1016.4mb 61f 60f
8:00  -   -   -  31 38 mph 1016.1mb 61f 60f
7:50 6ft 5s 5s 31 40 mph 1015.9mb 61f 60f
7:40  -   -   -  31 40 mph 1015.9mb 61f 60f
7:30  -   -   -  31 40 mph 1015.5mb - -
7:20  -   -   -  31 40 mph 1015.5mb 61f 60f
7:10  -   -   -  29 38 mph 1015.5mb 61f 60f
7:00  -   -   -  31 43 mph 1015.3mb 61f 60f
6:50 6ft 5s 5s 31 40 mph 1015.1mb 61f 60f
6:40 6ft  -  5s 31 40 mph 1015.1mb 61f 60f
6:30  -   -   -  31 40 mph 1015mb 61f 60f
6:20  -   -   -  29 38 mph 1015mb 61f 60f
6:10  -   -   -  27 36 mph 1015mb 61f 60f
6:00  -   -   -  27 34 mph 1014.9mb 61f 61f
5:50 5.5ft 5s 5s 25 31 mph 1014.8mb 61f 60f
5:40 5.5ft  -  5s 27 34 mph 1014.5mb 61f 61f
5:30  -   -   -  27 34 mph 1014.5mb 61f 61f
5:20  -   -   -  27 34 mph 1014.1mb 61f 60f
5:10  -   -   -  27 36 mph 1014.3mb 62f 60f
5:00  -   -   -  27 31 mph 1014.3mb 62f 61f
4:50 6.5ft 6s 5s 29 36 mph 1014.1mb 62f 60f
4:40 6.5ft  -  5s 29 36 mph 1013.9mb 62f 60f
4:30  -   -   -  29 38 mph 1013.8mb 62f 61f
4:20  -   -   -  29 36 mph 1014mb 62f 61f
4:10  -   -   -  27 36 mph 1013.9mb 62f 61f
4:00  -   -   -  25 31 mph 1013.9mb 62f 61f
3:50 5.5ft 5s 5s 25 31 mph 1014mb 62f 61f
3:40 5.5ft  -  5s 22 31 mph 1013.9mb 62f 61f
3:30  -   -   -  22 27 mph 1014mb 62f 61f
3:20  -   -   -  22 29 mph 1014mb 62f 61f
3:10  -   -   -  22 29 mph 1014mb 62f 61f
3:00  -   -   -  16 22 mph 1014.1mb 62f 61f
2:50 4.5ft 10s 6s 16 25 mph 1014.1mb 62f 62f
2:40 4.5ft  -  6s 18 22 mph 1014mb 62f 62f
2:30  -   -   -  16 22 mph 1014.3mb 62f 62f
2:20  -   -   -  16 20 mph 1014.4mb 62f 62f
2:10  -   -   -  16 20 mph 1014.4mb 62f 62f
2:00  -   -   -  16 22 mph 1014.3mb 62f 62f
1:50 4.5ft 14s 5s 16 20 mph 1014.4mb 62f 61f
1:40 4.5ft  -  5s 16 20 mph 1014.3mb 62f 62f
1:30  -   -   -  18 22 mph 1014.3mb 62f 62f
1:20  -   -   -  18 22 mph 1014mb 62f 62f
1:10  -   -   -  16 20 mph 1014.1mb 62f 61f
1:00  -   -   -  16 20 mph 1014mb 62f 61f
12:50 4.5ft 12s 5s 16 20 mph 1014mb 62f 61f
12:40 4.5ft  -  5s 16 22 mph 1014mb 62f 62f
12:30  -   -   -  18 22 mph 1013.8mb 62f 62f
12:20  -   -   -  16 20 mph 1013.8mb 62f 62f
12:10  -   -   -  16 20 mph 1013.9mb 62f 62f
12:00  -   -   -  13 18 mph 1014mb 62f 62f
Do 12/01 11:50 4.5ft 13s 6s 11 16 mph 1014mb 62f 61f
11:40 4.5ft  -  6s 9 13 mph 1014.1mb 62f 61f
11:30  -   -   -  9 11 mph 1014.1mb 62f 61f
11:20  -   -   -  9 11 mph 1014.3mb 62f 61f
11:10  -   -   -  11 13 mph 1014.3mb 62f 61f
11:00  -   -   -  11 13 mph 1014mb 62f 61f
10:50 4.5ft 12s 6s 11 13 mph 1014mb 62f 61f
10:40 4.5ft  -  6s 13 16 mph 1014mb 62f 61f
10:30  -   -   -  13 16 mph 1014mb 62f 61f
10:20  -   -   -  9 13 mph 1014mb 62f 60f
10:10  -   -   -  9 13 mph 1014.1mb 62f 60f
10:00  -   -   -  11 16 mph 1014.3mb 62f 59f
9:50 4.5ft 10s 6s 13 16 mph 1014.1mb 62f 60f
9:40 4.5ft  -  6s 13 16 mph 1014mb 62f 60f
9:30  -   -   -  13 16 mph 1014mb 62f 61f
9:20  -   -   -  13 16 mph 1014mb 62f 61f
9:10  -   -   -  11 13 mph 1013.9mb 62f 61f
9:00  -   -   -  11 16 mph 1014mb 62f 61f
8:50 4ft 8s 6s 13 16 mph 1014mb 62f 61f
8:40 4ft  -  6s 13 16 mph 1014mb - 61f
8:30  -   -   -  16 18 mph 1013.8mb 62f 61f
8:20  -   -   -  16 18 mph 1013.8mb 62f 61f
8:10  -   -   -  16 18 mph 1013.5mb 62f 61f
8:00  -   -   -  16 18 mph 1013.5mb 62f 60f
7:50 3.5ft 6s 5s 13 16 mph 1013.5mb 62f 60f
7:40 3.5ft  -  5s 13 16 mph 1013.5mb 62f 60f
7:30  -   -   -  11 16 mph 1013.5mb 62f 60f
7:20  -   -   -  11 16 mph 1013.8mb 62f 60f
7:10  -   -   -  11 16 mph 1013.8mb 62f 60f
7:00  -   -   -  11 16 mph 1013.8mb 62f 60f
6:50 3.5ft 15s 6s 9 13 mph 1013.6mb 62f 60f
6:40  -   -   -  11 13 mph 1013.8mb 62f 60f
6:30  -   -   -  11 13 mph 1013.8mb 62f 60f
6:20  -   -   -  11 13 mph 1013.8mb 62f 60f
6:10  -   -   -  11 13 mph 1013.6mb 62f 60f
6:00  -   -   -  11 16 mph 1013.6mb 62f 60f
5:50 4ft 15s 7s 11 13 mph 1013.5mb 62f 60f
5:40  -   -   -  11 13 mph 1013.5mb 62f 60f
5:30  -   -   -  11 13 mph 1013.5mb 62f 60f
5:20  -   -   -  11 13 mph 1014.1mb 62f 60f
5:10  -   -   -  11 16 mph 1014.1mb 62f 60f
5:00  -   -   -  11 13 mph 1013.5mb 62f 60f
4:50 3.5ft 9s 7s 11 13 mph 1013.5mb 62f 60f
4:40  -   -   -  11 13 mph 1013.5mb 62f 60f
4:30  -   -   -  11 13 mph 1013.5mb 62f 60f
4:20  -   -   -  11 13 mph 1013.5mb 62f 60f
4:10  -   -   -  9 11 mph 1013.5mb 62f 60f
4:00  -   -   -  9 11 mph 1013.4mb 62f 60f
3:50 3.5ft 9s 7s 7 9 mph 1013.4mb 62f 60f
3:40 3.5ft  -  7s 7 9 mph 1013.3mb 62f 60f
3:30  -   -   -  4 7 mph 1013.3mb 62f 60f
3:20  -   -   -  2 7 mph 1013.1mb 62f 61f
3:10  -   -   -  2 4 mph 1013mb - 60f
3:00  -   -   -  4 7 mph 1013mb 62f 60f
2:50 3.5ft 9s 7s 4 7 mph 1013.3mb 62f 60f
2:40 3.5ft  -  7s 4 7 mph 1013.3mb 62f 60f
2:30  -   -   -  4 7 mph 1013.5mb 62f 60f
2:20  -   -   -  2 4 mph 1013.6mb 62f 60f
2:10  -   -   -  2 4 mph 1013.6mb 62f 60f
2:00  -   -   -  2 4 mph 1013.5mb 62f 60f
1:50 3.5ft 8s 7s 2 4 mph 1013.5mb 62f 60f
1:40 3.5ft  -  7s 2 4 mph 1013.5mb 62f 60f
1:30  -   -   -  4 7 mph 1013.8mb 62f 60f
1:20  -   -   -  4 7 mph 1013.9mb 62f 60f
1:10  -   -   -  4 7 mph 1013.9mb 62f 60f
1:00  -   -   -  4 7 mph 1014mb 62f 60f
12:50 3.5ft 9s 7s 4 7 mph 1014mb 62f 60f
12:40  -   -   -  7 9 mph 1014mb 62f 60f
12:30  -   -   -  7 9 mph 1014mb 62f 60f
12:20  -   -   -  7 11 mph 1014mb 62f 60f
12:10  -   -   -  7 11 mph 1014.1mb 62f 60f
12:00  -   -   -  9 11 mph 1014.4mb 62f 60f
11:50 4ft 8s 7s 9 11 mph 1014.5mb 62f 60f
11:40 4ft  -  7s 9 11 mph 1014.6mb 62f 60f
11:30  -   -   -  9 13 mph 1014.8mb 62f 60f
11:20  -   -   -  9 13 mph 1014.8mb 62f 60f
11:10  -   -   -  9 11 mph 1015mb 62f 60f
11:00  -   -   -  9 11 mph 1015.1mb 62f 60f
10:50 4ft 8s 6s 9 11 mph 1015.1mb - 59f
9:50 4ft 15s 6s 7 11 mph 1015.6mb 62f 59f
9:40 4ft  -  6s 7 9 mph 1015.8mb 62f 59f
9:30  -   -   -  7 9 mph 1016mb 62f 59f
9:20  -   -   -  4 9 mph 1016mb 62f 59f
9:10  -   -   -  4 7 mph 1015.9mb 62f 59f
9:00  -   -   -  2 4 mph 1015.9mb 62f 60f
8:50 4ft 15s 5s 2 7 mph 1015.6mb 62f 60f
8:40  -   -   -  2 7 mph 1016.1mb 62f 60f
8:30  -   -   -  2 4 mph 1015.5mb 62f 59f
8:20  -   -   -   -  2 mph 1015.4mb 62f 59f
8:10  -   -   -   -  2 mph 1015.4mb 62f 58f
8:00  -   -   -   -  2 mph 1015mb 62f 58f
7:50 4ft 15s 5s 2 4 mph 1015.1mb 62f 58f
7:40  -   -   -   -  2 mph 1015mb 62f 58f
7:30  -   -   -   -  2 mph 1015.1mb 62f 58f
7:20  -   -   -   -  2 mph 1014.9mb 62f 58f
7:10  -   -   -   -  2 mph 1014.6mb 62f 58f
7:00  -   -   -   -  2 mph 1014.5mb 62f 58f
6:50 4ft 16s 6s  -  4 mph 1014.4mb 62f 58f
6:40 4ft  -  6s 2 4 mph 1014.3mb 62f 58f
6:30  -   -   -  2 4 mph 1014.3mb 62f 58f
6:20  -   -   -  2 4 mph 1014.3mb 62f 58f
6:10  -   -   -  4 7 mph 1014.1mb 62f 58f
6:00  -   -   -  4 7 mph 1014mb 62f 58f
5:50 3.5ft 6s 6s 4 7 mph 1013.8mb 62f 58f
5:40  -   -   -  4 7 mph 1013.8mb 62f 58f
5:30  -   -   -  2 4 mph 1013.9mb 62f 58f
5:20  -   -   -  4 7 mph 1014mb 62f 58f
5:10  -   -   -  4 7 mph 1014mb 62f 58f
5:00  -   -   -  4 9 mph 1014.1mb - 58f
4:50 4ft 6s 6s 7 9 mph 1014.1mb 62f 58f
4:40  -   -   -  7 9 mph 1014mb 62f 58f
4:30  -   -   -  4 7 mph 1014mb 62f 58f
4:20  -   -   -  7 9 mph 1014mb 62f 58f
4:10  -   -   -  7 9 mph 1014mb 62f 59f
4:00  -   -   -  7 9 mph 1014mb 62f 59f
3:50 4ft 15s 6s 9 11 mph 1014mb 62f 59f
3:40 4ft  -  6s 9 11 mph 1014.1mb 62f 59f
3:30  -   -   -  9 11 mph 1014.3mb 62f 59f
3:20  -   -   -  9 11 mph 1014.5mb 62f 59f
3:10  -   -   -  7 11 mph 1014.5mb 62f 59f
3:00  -   -   -  9 11 mph 1014.5mb 62f 59f
2:50 4ft 7s 5s 7 9 mph 1014.5mb 62f 60f
2:40 4ft  -  5s 4 9 mph 1014.8mb 62f 60f
2:30  -   -   -  7 9 mph 1014.9mb 62f 60f
2:20  -   -   -  7 9 mph 1015mb 62f 60f
2:10  -   -   -  7 9 mph 1015mb 62f 60f
2:00  -   -   -  7 11 mph 1015mb 62f 60f
1:50 4ft 15s 6s 9 11 mph 1015mb 62f 60f
1:40 4ft  -  6s 7 9 mph 1014.9mb 62f 60f
1:30  -   -   -  7 9 mph 1014.9mb 62f 60f
1:20  -   -   -  9 11 mph 1014.8mb 62f 60f
1:10  -   -   -  9 11 mph 1015mb 62f 59f
1:00  -   -   -  9 11 mph 1014.9mb 62f 60f
12:50 3.5ft 16s 5s 11 13 mph 1015.1mb 62f 60f
12:40 3.5ft  -  5s 9 13 mph 1015.1mb 62f 60f
12:30  -   -   -  7 9 mph 1015.4mb 62f 60f
12:20  -   -   -  7 9 mph 1015.4mb 62f 60f
12:10  -   -   -  7 9 mph 1015.4mb 62f 60f
12:00  -   -   -  9
mph
1015.4mb 62f 60f
Mi 11/30 11:50 3.5ft 14s 6s 9 11 mph 1016mb - 59f
11:40  -   -   -  9 11 mph 1015.4mb 62f 59f
11:30  -   -   -  7 11 mph 1015.5mb 62f 59f
11:20  -   -   -  7 9 mph 1015.5mb 62f 59f
11:10  -   -   -  4 7 mph 1015.6mb 62f 59f
11:00  -   -   -  2 9 mph 1015.5mb 62f 59f
10:50 3.5ft 16s 5s 7 13 mph 1015.4mb - -
10:40 3.5ft  -  5s 11 13 mph 1015.4mb 62f 59f
10:30  -   -   -  13 16 mph 1015.5mb 62f 59f
10:20  -   -   -  16 18 mph 1015.4mb 62f 59f
10:10  -   -   -  16 18 mph 1015.4mb 62f 60f
10:00  -   -   -  16 18 mph 1015.3mb 62f 60f
9:50 3.5ft 15s 5s 13 18 mph 1015.4mb 62f 60f
9:40 3.5ft  -  5s 9 13 mph 1015.1mb 62f 60f
9:30  -   -   -  11 16 mph 1015mb 62f 60f
9:20  -   -   -  13 16 mph 1015mb 62f 60f
9:10  -   -   -  11 13 mph 1015mb 62f 60f
9:00  -   -   -  9 13 mph 1015mb 62f 60f
8:50 3.5ft 15s 6s 9 11 mph 1015mb 62f 60f
8:40 3.5ft  -  6s 9 11 mph 1015.1mb 62f 60f
8:30  -   -   -  9 11 mph 1015.1mb 62f 59f
8:20  -   -   -  9 11 mph 1015.4mb 62f 59f
8:10  -   -   -  11 13 mph 1015.4mb 62f 59f
8:00  -   -   -  11 13 mph 1015.4mb 63f 60f
7:50 3.5ft 13s 6s 11 13 mph 1015.4mb 63f 60f
7:40  -   -   -  11 13 mph 1015.4mb 63f 60f
7:30  -   -   -  9 11 mph 1015.5mb 63f 61f
7:20  -   -   -  9 11 mph 1015.6mb 63f 61f
7:10  -   -   -  7 9 mph 1015.6mb 63f 60f
7:00  -   -   -  7 9 mph 1015.5mb 63f 60f
6:50 3.5ft 16s 6s 9 11 mph 1015.5mb 63f 60f
6:40 3.5ft  -  6s 9 11 mph 1015.5mb 63f 60f
6:30  -   -   -  9 11 mph 1015.4mb - 61f
6:20  -   -   -  7 9 mph 1015.3mb 63f 60f
6:10  -   -   -  7 9 mph 1015.4mb 63f 60f
6:00  -   -   -  7 9 mph 1015.3mb 63f 60f
5:50 3.5ft 15s 6s 9 11 mph 1015.4mb 63f 60f
5:40 3.5ft  -  6s 9 11 mph 1015.5mb 63f 60f
5:30  -   -   -  9 11 mph 1015.5mb 63f 60f
5:20  -   -   -  11 13 mph 1015.6mb 63f 60f
5:10  -   -   -  11 13 mph 1015.8mb 63f 60f
5:00  -   -   -  11 13 mph 1015.8mb 63f 60f
4:50 3.5ft 16s 7s 9 13 mph 1015.5mb 63f 60f
4:40  -   -   -  11 13 mph 1015.6mb 63f 60f
4:30  -   -   -  11 13 mph 1015.6mb 63f 61f
4:20  -   -   -  11 16 mph 1015.9mb 63f 61f
4:10  -   -   -  11 16 mph 1016mb 63f 61f
4:00  -   -   -  13 16 mph 1016mb 63f 61f
3:50 3.5ft 9s 7s 11 16 mph 1016.1mb 63f 61f
3:10  -   -   -  11 13 mph 1016mb 63f 61f
3:00  -   -   -  11 13 mph 1016mb 63f 61f
2:50 3.5ft 11s 7s 9 11 mph 1016mb 63f 61f
2:40 3.5ft  -  7s 9
mph
1016mb 63f 61f
2:30  -   -   -  7 9 mph 1016mb 63f 61f
2:20  -   -   -  7 9 mph 1016.1mb 63f 61f
2:10  -   -   -  4 7 mph 1016mb 63f 61f